UAE503 VABB-OMDB
Flight info
| Callsign | UAE503 |
|---|---|
| Flight time | 2h 32m |
| Altitude | 40000 |
| Route | RAXET2A SAKUN V2 SUGID N571 VUSET A454 PASOV B540 KUPMA/N0440F240 B540 MIVEK P574 IMPED |
| Aircraft | A359/H-SDE2E3GHIJ3J4J5LM1ORWXY/LB1D1 |
Departure
| Time | 2026-04-26 16:55 |
|---|---|
| Airport | Chhatrapati Shivaji Maharaj International Airport (VABB) |
Arrival
| Time | 2026-04-26 19:27 |
|---|---|
| Airport | Dubai International Airport (OMDB) |
| Time | Latitude | Longitude | Altitude | Speed | Heading |
|---|---|---|---|---|---|
| 2026-04-26 16:21 | 19.09477 | 72.87069 | 48 ft | 0 kts | 140° |
| 2026-04-26 16:29 | 19.09477 | 72.87068 | 56 ft | 0 kts | 140° |
| 2026-04-26 16:45 | 19.09478 | 72.87068 | 56 ft | 2 kts | 140° |
| 2026-04-26 16:45 | 19.09502 | 72.87046 | 49 ft | 5 kts | 141° |
| 2026-04-26 16:45 | 19.09526 | 72.87029 | 48 ft | 3 kts | 160° |
| 2026-04-26 16:45 | 19.09543 | 72.87028 | 48 ft | 3 kts | 208° |
| 2026-04-26 16:46 | 19.09554 | 72.87036 | 48 ft | 2 kts | 223° |
| 2026-04-26 16:46 | 19.09562 | 72.87044 | 48 ft | 2 kts | 225° |
| 2026-04-26 16:46 | 19.09562 | 72.87045 | 48 ft | 0 kts | 225° |
| 2026-04-26 16:48 | 19.09547 | 72.87028 | 48 ft | 6 kts | 225° |
| 2026-04-26 16:48 | 19.09505 | 72.86979 | 52 ft | 12 kts | 228° |
| 2026-04-26 16:49 | 19.09442 | 72.86907 | 51 ft | 14 kts | 227° |
| 2026-04-26 16:49 | 19.09381 | 72.86872 | 49 ft | 8 kts | 168° |
| 2026-04-26 16:49 | 19.09338 | 72.86908 | 49 ft | 9 kts | 138° |
| 2026-04-26 16:49 | 19.09288 | 72.86958 | 48 ft | 11 kts | 134° |
| 2026-04-26 16:50 | 19.09240 | 72.87024 | 51 ft | 12 kts | 109° |
| 2026-04-26 16:50 | 19.09195 | 72.87077 | 49 ft | 10 kts | 164° |
| 2026-04-26 16:50 | 19.09143 | 72.87111 | 50 ft | 9 kts | 114° |
| 2026-04-26 16:50 | 19.09137 | 72.87187 | 52 ft | 12 kts | 90° |
| 2026-04-26 16:51 | 19.09134 | 72.87239 | 52 ft | 0 kts | 103° |
| 2026-04-26 16:51 | 19.09134 | 72.87241 | 52 ft | 2 kts | 105° |
| 2026-04-26 16:51 | 19.09106 | 72.87268 | 49 ft | 6 kts | 157° |
| 2026-04-26 16:51 | 19.09068 | 72.87284 | 48 ft | 6 kts | 136° |
| 2026-04-26 16:52 | 19.09053 | 72.87330 | 49 ft | 8 kts | 96° |
| 2026-04-26 16:52 | 19.09052 | 72.87379 | 51 ft | 11 kts | 89° |
| 2026-04-26 16:52 | 19.09006 | 72.87452 | 52 ft | 8 kts | 176° |
| 2026-04-26 16:52 | 19.09002 | 72.87452 | 51 ft | 0 kts | 178° |
| 2026-04-26 16:54 | 19.08981 | 72.87453 | 54 ft | 6 kts | 179° |
| 2026-04-26 16:54 | 19.08927 | 72.87454 | 51 ft | 9 kts | 179° |
| 2026-04-26 16:54 | 19.08885 | 72.87421 | 49 ft | 8 kts | 252° |
| 2026-04-26 16:54 | 19.08878 | 72.87358 | 53 ft | 9 kts | 269° |
| 2026-04-26 16:55 | 19.08877 | 72.87235 | 53 ft | 38 kts | 269° |
| 2026-04-26 16:55 | 19.08869 | 72.86684 | 50 ft | 110 kts | 269° |
| 2026-04-26 16:55 | 19.08860 | 72.85645 | 61 ft | 169 kts | 269° |
| 2026-04-26 16:55 | 19.08857 | 72.84414 | 828 ft | 158 kts | 270° |
| 2026-04-26 16:56 | 19.08856 | 72.82028 | 1716 ft | 179 kts | 275° |
| 2026-04-26 16:56 | 19.08870 | 72.80675 | 1907 ft | 197 kts | 274° |
| 2026-04-26 16:56 | 19.08871 | 72.79142 | 2155 ft | 214 kts | 272° |
| 2026-04-26 16:57 | 19.08821 | 72.77475 | 2351 ft | 237 kts | 271° |
| 2026-04-26 16:57 | 19.08764 | 72.75664 | 2624 ft | 254 kts | 272° |
| 2026-04-26 16:57 | 19.09057 | 72.71855 | 3591 ft | 267 kts | 278° |
| 2026-04-26 16:58 | 19.09268 | 72.69892 | 4180 ft | 271 kts | 278° |
| 2026-04-26 16:58 | 19.09340 | 72.69222 | 4352 ft | 272 kts | 277° |
| 2026-04-26 16:58 | 19.09923 | 72.63852 | 5893 ft | 279 kts | 277° |
| 2026-04-26 16:59 | 19.10144 | 72.61802 | 6465 ft | 281 kts | 276° |
| 2026-04-26 16:59 | 19.10591 | 72.57649 | 7513 ft | 288 kts | 276° |
| 2026-04-26 17:00 | 19.11046 | 72.53400 | 8587 ft | 293 kts | 275° |
| 2026-04-26 17:00 | 19.11516 | 72.49105 | 9683 ft | 298 kts | 276° |
| 2026-04-26 17:00 | 19.11817 | 72.46917 | 10099 ft | 306 kts | 278° |
| 2026-04-26 17:01 | 19.12164 | 72.44645 | 10338 ft | 319 kts | 278° |
| 2026-04-26 17:01 | 19.12536 | 72.42285 | 10568 ft | 332 kts | 278° |
| 2026-04-26 17:01 | 19.12916 | 72.39830 | 10798 ft | 344 kts | 278° |
| 2026-04-26 17:01 | 19.13302 | 72.37294 | 11015 ft | 355 kts | 278° |
| 2026-04-26 17:02 | 19.13694 | 72.34682 | 11284 ft | 363 kts | 278° |
| 2026-04-26 17:02 | 19.14087 | 72.32023 | 11644 ft | 368 kts | 278° |
| 2026-04-26 17:02 | 19.14478 | 72.29340 | 12027 ft | 372 kts | 278° |
| 2026-04-26 17:02 | 19.14876 | 72.26623 | 12436 ft | 375 kts | 278° |
| 2026-04-26 17:03 | 19.15277 | 72.23886 | 12838 ft | 378 kts | 278° |
| 2026-04-26 17:03 | 19.15543 | 72.22061 | 13102 ft | 380 kts | 278° |
| 2026-04-26 17:03 | 19.16078 | 72.18373 | 13624 ft | 384 kts | 278° |
| 2026-04-26 17:03 | 19.16349 | 72.16508 | 13872 ft | 386 kts | 278° |
| 2026-04-26 17:04 | 19.16761 | 72.13683 | 14265 ft | 388 kts | 278° |
| 2026-04-26 17:04 | 19.17172 | 72.10864 | 14668 ft | 389 kts | 278° |
| 2026-04-26 17:04 | 19.17585 | 72.08030 | 15071 ft | 390 kts | 278° |
| 2026-04-26 17:04 | 19.17998 | 72.05190 | 15467 ft | 392 kts | 278° |
| 2026-04-26 17:05 | 19.18412 | 72.02333 | 15843 ft | 394 kts | 278° |
| 2026-04-26 17:05 | 19.18829 | 71.99453 | 16228 ft | 396 kts | 278° |
| 2026-04-26 17:05 | 19.19248 | 71.96555 | 16607 ft | 398 kts | 278° |
| 2026-04-26 17:05 | 19.19668 | 71.93650 | 16982 ft | 400 kts | 278° |
| 2026-04-26 17:06 | 19.20084 | 71.90766 | 17352 ft | 403 kts | 278° |
| 2026-04-26 17:06 | 19.20504 | 71.87829 | 17719 ft | 405 kts | 278° |
| 2026-04-26 17:06 | 19.20926 | 71.84874 | 18094 ft | 407 kts | 278° |
| 2026-04-26 17:06 | 19.21353 | 71.81899 | 18398 ft | 409 kts | 278° |
| 2026-04-26 17:07 | 19.21784 | 71.78910 | 18715 ft | 411 kts | 278° |
| 2026-04-26 17:07 | 19.22209 | 71.75939 | 19038 ft | 413 kts | 278° |
| 2026-04-26 17:07 | 19.22640 | 71.72934 | 19364 ft | 414 kts | 278° |
| 2026-04-26 17:07 | 19.23077 | 71.69912 | 19701 ft | 415 kts | 278° |
| 2026-04-26 17:08 | 19.23512 | 71.66884 | 20050 ft | 416 kts | 278° |
| 2026-04-26 17:08 | 19.23945 | 71.63846 | 20370 ft | 418 kts | 278° |
| 2026-04-26 17:08 | 19.24379 | 71.60801 | 20708 ft | 419 kts | 278° |
| 2026-04-26 17:08 | 19.24811 | 71.57753 | 21040 ft | 420 kts | 278° |
| 2026-04-26 17:09 | 19.25248 | 71.54704 | 21514 ft | 416 kts | 277° |
| 2026-04-26 17:09 | 19.25535 | 71.52702 | 21962 ft | 411 kts | 277° |
| 2026-04-26 17:09 | 19.26103 | 71.48697 | 22409 ft | 412 kts | 277° |
| 2026-04-26 17:09 | 19.26527 | 71.45684 | 22666 ft | 415 kts | 277° |
| 2026-04-26 17:10 | 19.26953 | 71.42651 | 22959 ft | 416 kts | 277° |
| 2026-04-26 17:10 | 19.27380 | 71.39623 | 23246 ft | 418 kts | 277° |
| 2026-04-26 17:10 | 19.27808 | 71.36578 | 23529 ft | 418 kts | 277° |
| 2026-04-26 17:10 | 19.28232 | 71.33569 | 23779 ft | 419 kts | 276° |
| 2026-04-26 17:11 | 19.28662 | 71.30512 | 24030 ft | 420 kts | 276° |
| 2026-04-26 17:11 | 19.29093 | 71.27451 | 24293 ft | 420 kts | 276° |
| 2026-04-26 17:11 | 19.29524 | 71.24386 | 24546 ft | 421 kts | 276° |
| 2026-04-26 17:11 | 19.29955 | 71.21313 | 24803 ft | 421 kts | 276° |
| 2026-04-26 17:12 | 19.30817 | 71.15158 | 25322 ft | 422 kts | 276° |
| 2026-04-26 17:12 | 19.31246 | 71.12081 | 25580 ft | 423 kts | 276° |
| 2026-04-26 17:13 | 19.32102 | 71.05949 | 26089 ft | 424 kts | 276° |
| 2026-04-26 17:13 | 19.32532 | 71.02856 | 26351 ft | 425 kts | 276° |
| 2026-04-26 17:13 | 19.33395 | 70.96646 | 26884 ft | 427 kts | 275° |
| 2026-04-26 17:14 | 19.33827 | 70.93533 | 27146 ft | 428 kts | 275° |
| 2026-04-26 17:14 | 19.34691 | 70.87287 | 27718 ft | 429 kts | 275° |
| 2026-04-26 17:14 | 19.35125 | 70.84148 | 28006 ft | 430 kts | 275° |
| 2026-04-26 17:15 | 19.35986 | 70.77904 | 28580 ft | 432 kts | 275° |
| 2026-04-26 17:15 | 19.36419 | 70.74755 | 28857 ft | 433 kts | 275° |
| 2026-04-26 17:15 | 19.36854 | 70.71589 | 29148 ft | 434 kts | 275° |
| 2026-04-26 17:16 | 19.37289 | 70.68419 | 29454 ft | 435 kts | 275° |
| 2026-04-26 17:16 | 19.37724 | 70.65243 | 29747 ft | 436 kts | 275° |
| 2026-04-26 17:16 | 19.38159 | 70.62063 | 30021 ft | 437 kts | 275° |
| 2026-04-26 17:16 | 19.38595 | 70.58875 | 30259 ft | 439 kts | 274° |
| 2026-04-26 17:17 | 19.39033 | 70.55661 | 30502 ft | 441 kts | 274° |
| 2026-04-26 17:17 | 19.39472 | 70.52443 | 30754 ft | 442 kts | 274° |
| 2026-04-26 17:17 | 19.39911 | 70.49213 | 31005 ft | 444 kts | 274° |
| 2026-04-26 17:17 | 19.40352 | 70.45975 | 31267 ft | 445 kts | 274° |
| 2026-04-26 17:18 | 19.40789 | 70.42757 | 31512 ft | 447 kts | 274° |
| 2026-04-26 17:18 | 19.41231 | 70.39491 | 31753 ft | 448 kts | 274° |
| 2026-04-26 17:18 | 19.41674 | 70.36219 | 31992 ft | 450 kts | 273° |
| 2026-04-26 17:18 | 19.42119 | 70.32934 | 32230 ft | 451 kts | 273° |
| 2026-04-26 17:19 | 19.43010 | 70.26326 | 32683 ft | 454 kts | 273° |
| 2026-04-26 17:19 | 19.43457 | 70.23005 | 32899 ft | 455 kts | 273° |
| 2026-04-26 17:19 | 19.43905 | 70.19676 | 33122 ft | 457 kts | 273° |
| 2026-04-26 17:20 | 19.44353 | 70.16339 | 33336 ft | 458 kts | 272° |
| 2026-04-26 17:20 | 19.44649 | 70.14131 | 33478 ft | 459 kts | 272° |
| 2026-04-26 17:20 | 19.45252 | 70.09632 | 33763 ft | 461 kts | 272° |
| 2026-04-26 17:20 | 19.45701 | 70.06274 | 33996 ft | 461 kts | 272° |
| 2026-04-26 17:21 | 19.46147 | 70.02940 | 34216 ft | 461 kts | 272° |
| 2026-04-26 17:21 | 19.46597 | 69.99574 | 34420 ft | 462 kts | 273° |
| 2026-04-26 17:21 | 19.47048 | 69.96193 | 34636 ft | 463 kts | 273° |
| 2026-04-26 17:21 | 19.47497 | 69.92816 | 34856 ft | 464 kts | 273° |
| 2026-04-26 17:22 | 19.47948 | 69.89423 | 35075 ft | 464 kts | 273° |
| 2026-04-26 17:22 | 19.48398 | 69.86029 | 35307 ft | 465 kts | 273° |
| 2026-04-26 17:22 | 19.48849 | 69.82621 | 35535 ft | 466 kts | 274° |
| 2026-04-26 17:22 | 19.49295 | 69.79251 | 35748 ft | 466 kts | 274° |
| 2026-04-26 17:23 | 19.49745 | 69.75840 | 35980 ft | 467 kts | 274° |
| 2026-04-26 17:23 | 19.50195 | 69.72420 | 36204 ft | 468 kts | 274° |
| 2026-04-26 17:23 | 19.50647 | 69.68992 | 36440 ft | 468 kts | 274° |
| 2026-04-26 17:23 | 19.51091 | 69.65611 | 36670 ft | 469 kts | 274° |
| 2026-04-26 17:24 | 19.51541 | 69.62184 | 36897 ft | 470 kts | 274° |
| 2026-04-26 17:24 | 19.51991 | 69.58746 | 37115 ft | 470 kts | 275° |
| 2026-04-26 17:24 | 19.52440 | 69.55311 | 37347 ft | 471 kts | 275° |
| 2026-04-26 17:24 | 19.52890 | 69.51867 | 37577 ft | 471 kts | 275° |
| 2026-04-26 17:25 | 19.53339 | 69.48424 | 37805 ft | 472 kts | 275° |
| 2026-04-26 17:25 | 19.53789 | 69.44974 | 38043 ft | 472 kts | 275° |
| 2026-04-26 17:25 | 19.54238 | 69.41517 | 38272 ft | 473 kts | 275° |
| 2026-04-26 17:25 | 19.54724 | 69.38069 | 38479 ft | 474 kts | 278° |
| 2026-04-26 17:26 | 19.55555 | 69.34672 | 38668 ft | 477 kts | 286° |
| 2026-04-26 17:26 | 19.56761 | 69.31432 | 38866 ft | 479 kts | 291° |
| 2026-04-26 17:26 | 19.58178 | 69.28232 | 39076 ft | 479 kts | 294° |
| 2026-04-26 17:26 | 19.59689 | 69.25086 | 39283 ft | 479 kts | 295° |
| 2026-04-26 17:27 | 19.61242 | 69.21951 | 39480 ft | 479 kts | 295° |
| 2026-04-26 17:27 | 19.62793 | 69.18829 | 39684 ft | 478 kts | 295° |
| 2026-04-26 17:27 | 19.64338 | 69.15693 | 39822 ft | 479 kts | 295° |
| 2026-04-26 17:27 | 19.65867 | 69.12557 | 39854 ft | 478 kts | 295° |
| 2026-04-26 17:28 | 19.68877 | 69.06313 | 39855 ft | 478 kts | 294° |
| 2026-04-26 17:28 | 19.71885 | 69.00030 | 39853 ft | 478 kts | 294° |
| 2026-04-26 17:29 | 19.74407 | 68.94755 | 39855 ft | 478 kts | 294° |
| 2026-04-26 17:29 | 19.77896 | 68.87458 | 39854 ft | 478 kts | 294° |
| 2026-04-26 17:30 | 19.80901 | 68.81166 | 39855 ft | 478 kts | 295° |
| 2026-04-26 17:30 | 19.83918 | 68.74843 | 39855 ft | 478 kts | 295° |
| 2026-04-26 17:31 | 19.86927 | 68.68531 | 39853 ft | 478 kts | 295° |
| 2026-04-26 17:31 | 19.89912 | 68.62260 | 39854 ft | 478 kts | 295° |
| 2026-04-26 17:32 | 19.92913 | 68.55950 | 39857 ft | 478 kts | 295° |
| 2026-04-26 17:32 | 19.95913 | 68.49634 | 39857 ft | 478 kts | 295° |
| 2026-04-26 17:33 | 19.98914 | 68.43309 | 39857 ft | 479 kts | 295° |
| 2026-04-26 17:34 | 20.03392 | 68.33857 | 39855 ft | 479 kts | 295° |
| 2026-04-26 17:34 | 20.06385 | 68.27532 | 39846 ft | 479 kts | 295° |
| 2026-04-26 17:35 | 20.09381 | 68.21192 | 39860 ft | 479 kts | 295° |
| 2026-04-26 17:35 | 20.12372 | 68.14856 | 39862 ft | 479 kts | 295° |
| 2026-04-26 17:36 | 20.15361 | 68.08517 | 39857 ft | 479 kts | 295° |
| 2026-04-26 17:36 | 20.18334 | 68.02204 | 39859 ft | 479 kts | 295° |
| 2026-04-26 17:37 | 20.21321 | 67.95856 | 39848 ft | 479 kts | 295° |
| 2026-04-26 17:37 | 20.24310 | 67.89495 | 39851 ft | 479 kts | 295° |
| 2026-04-26 17:38 | 20.28759 | 67.80013 | 39855 ft | 479 kts | 295° |
| 2026-04-26 17:38 | 20.31745 | 67.73640 | 39855 ft | 479 kts | 295° |
| 2026-04-26 17:39 | 20.34725 | 67.67273 | 39855 ft | 479 kts | 295° |
| 2026-04-26 17:39 | 20.37683 | 67.60947 | 39856 ft | 480 kts | 295° |
| 2026-04-26 17:40 | 20.39671 | 67.56690 | 39869 ft | 480 kts | 295° |
| 2026-04-26 17:40 | 20.43627 | 67.48208 | 39858 ft | 480 kts | 295° |
| 2026-04-26 17:41 | 20.46599 | 67.41830 | 39861 ft | 480 kts | 295° |
| 2026-04-26 17:41 | 20.49566 | 67.35453 | 39859 ft | 480 kts | 295° |
| 2026-04-26 17:42 | 20.52543 | 67.29047 | 39860 ft | 481 kts | 295° |
| 2026-04-26 17:42 | 20.55499 | 67.22679 | 39862 ft | 481 kts | 295° |
| 2026-04-26 17:43 | 20.58468 | 67.16277 | 39863 ft | 481 kts | 295° |
| 2026-04-26 17:43 | 20.61437 | 67.09865 | 39860 ft | 482 kts | 295° |
| 2026-04-26 17:44 | 20.64406 | 67.03447 | 39856 ft | 482 kts | 295° |
| 2026-04-26 17:44 | 20.67374 | 66.97022 | 39857 ft | 483 kts | 295° |
| 2026-04-26 17:45 | 20.70326 | 66.90626 | 39854 ft | 483 kts | 295° |
| 2026-04-26 17:45 | 20.73296 | 66.84182 | 39857 ft | 483 kts | 295° |
| 2026-04-26 17:46 | 20.76264 | 66.77735 | 39858 ft | 484 kts | 295° |
| 2026-04-26 17:46 | 20.79230 | 66.71285 | 39859 ft | 484 kts | 295° |
| 2026-04-26 17:47 | 20.81218 | 66.66957 | 39859 ft | 484 kts | 295° |
| 2026-04-26 17:47 | 20.85166 | 66.58352 | 39857 ft | 484 kts | 295° |
| 2026-04-26 17:48 | 20.88112 | 66.51920 | 39855 ft | 484 kts | 295° |
| 2026-04-26 17:48 | 20.91071 | 66.45454 | 39857 ft | 484 kts | 296° |
| 2026-04-26 17:49 | 20.94032 | 66.38975 | 39860 ft | 484 kts | 296° |
| 2026-04-26 17:49 | 20.96996 | 66.32498 | 39856 ft | 484 kts | 296° |
| 2026-04-26 17:50 | 20.99926 | 66.26067 | 39853 ft | 483 kts | 296° |
| 2026-04-26 17:50 | 21.02869 | 66.19595 | 39858 ft | 483 kts | 296° |
| 2026-04-26 17:51 | 21.05820 | 66.13124 | 39862 ft | 483 kts | 296° |
| 2026-04-26 17:51 | 21.08758 | 66.06645 | 39857 ft | 483 kts | 296° |
| 2026-04-26 17:52 | 21.11672 | 66.00213 | 39859 ft | 482 kts | 296° |
| 2026-04-26 17:52 | 21.14653 | 65.93778 | 39858 ft | 482 kts | 297° |
| 2026-04-26 17:53 | 21.17186 | 65.88448 | 39857 ft | 482 kts | 298° |
| 2026-04-26 17:54 | 21.21741 | 65.78833 | 39857 ft | 482 kts | 297° |
| 2026-04-26 17:54 | 21.24758 | 65.72418 | 39855 ft | 482 kts | 297° |
| 2026-04-26 17:55 | 21.27750 | 65.66041 | 39857 ft | 481 kts | 298° |
| 2026-04-26 17:55 | 21.30763 | 65.59612 | 39859 ft | 481 kts | 298° |
| 2026-04-26 17:56 | 21.33768 | 65.53192 | 39854 ft | 481 kts | 298° |
| 2026-04-26 17:57 | 21.39750 | 65.40394 | 39856 ft | 480 kts | 298° |
| 2026-04-26 17:57 | 21.42741 | 65.33980 | 39853 ft | 480 kts | 298° |
| 2026-04-26 17:58 | 21.48685 | 65.21216 | 39854 ft | 479 kts | 298° |
| 2026-04-26 17:59 | 21.53143 | 65.11621 | 39861 ft | 478 kts | 298° |
| 2026-04-26 17:59 | 21.56104 | 65.05238 | 39853 ft | 477 kts | 298° |
| 2026-04-26 18:00 | 21.59044 | 64.98893 | 39854 ft | 476 kts | 298° |
| 2026-04-26 18:00 | 21.61995 | 64.92516 | 39857 ft | 475 kts | 298° |
| 2026-04-26 18:01 | 21.64940 | 64.86146 | 39855 ft | 474 kts | 298° |
| 2026-04-26 18:01 | 21.67853 | 64.79836 | 39850 ft | 474 kts | 298° |
| 2026-04-26 18:02 | 21.70306 | 64.74516 | 39848 ft | 473 kts | 298° |
| 2026-04-26 18:02 | 21.73699 | 64.67149 | 39854 ft | 473 kts | 298° |
| 2026-04-26 18:03 | 21.76613 | 64.60813 | 39853 ft | 472 kts | 298° |
| 2026-04-26 18:03 | 21.79526 | 64.54472 | 39851 ft | 472 kts | 298° |
| 2026-04-26 18:04 | 21.82430 | 64.48144 | 39859 ft | 471 kts | 298° |
| 2026-04-26 18:05 | 21.86755 | 64.38703 | 39853 ft | 470 kts | 298° |
| 2026-04-26 18:05 | 21.89642 | 64.32391 | 39847 ft | 469 kts | 298° |
| 2026-04-26 18:06 | 21.92520 | 64.26091 | 39855 ft | 468 kts | 298° |
| 2026-04-26 18:06 | 21.95393 | 64.19794 | 39845 ft | 468 kts | 298° |
| 2026-04-26 18:07 | 21.98261 | 64.13501 | 39845 ft | 467 kts | 298° |
| 2026-04-26 18:07 | 22.01118 | 64.07223 | 39847 ft | 466 kts | 298° |
| 2026-04-26 18:08 | 22.03955 | 64.00982 | 39847 ft | 465 kts | 298° |
| 2026-04-26 18:08 | 22.06803 | 63.94708 | 39841 ft | 465 kts | 298° |
| 2026-04-26 18:09 | 22.09639 | 63.88455 | 39843 ft | 464 kts | 298° |
| 2026-04-26 18:09 | 22.12475 | 63.82193 | 39840 ft | 464 kts | 298° |
| 2026-04-26 18:10 | 22.15288 | 63.75974 | 39841 ft | 463 kts | 298° |
| 2026-04-26 18:10 | 22.18114 | 63.69718 | 39838 ft | 463 kts | 298° |
| 2026-04-26 18:11 | 22.20934 | 63.63468 | 39838 ft | 462 kts | 298° |
| 2026-04-26 18:11 | 22.23745 | 63.57231 | 39839 ft | 462 kts | 298° |
| 2026-04-26 18:12 | 22.26542 | 63.51018 | 39839 ft | 462 kts | 298° |
| 2026-04-26 18:12 | 22.29348 | 63.44777 | 39838 ft | 462 kts | 298° |
| 2026-04-26 18:13 | 22.32152 | 63.38530 | 39834 ft | 461 kts | 298° |
| 2026-04-26 18:13 | 22.34936 | 63.32322 | 39837 ft | 461 kts | 298° |
| 2026-04-26 18:14 | 22.37731 | 63.26081 | 39841 ft | 461 kts | 298° |
| 2026-04-26 18:14 | 22.40518 | 63.19850 | 39835 ft | 460 kts | 298° |
| 2026-04-26 18:15 | 22.43304 | 63.13615 | 39837 ft | 460 kts | 298° |
| 2026-04-26 18:15 | 22.46013 | 63.07338 | 39836 ft | 461 kts | 296° |
| 2026-04-26 18:16 | 22.48468 | 63.00932 | 39835 ft | 461 kts | 295° |
| 2026-04-26 18:16 | 22.52113 | 62.91356 | 39831 ft | 460 kts | 295° |
| 2026-04-26 18:17 | 22.54588 | 62.84977 | 39830 ft | 460 kts | 296° |
| 2026-04-26 18:17 | 22.57070 | 62.78609 | 39826 ft | 459 kts | 296° |
| 2026-04-26 18:18 | 22.59549 | 62.72237 | 39828 ft | 459 kts | 295° |
| 2026-04-26 18:18 | 22.62019 | 62.65873 | 39832 ft | 458 kts | 295° |
| 2026-04-26 18:19 | 22.64474 | 62.59538 | 39830 ft | 458 kts | 295° |
| 2026-04-26 18:19 | 22.66934 | 62.53180 | 39827 ft | 458 kts | 295° |
| 2026-04-26 18:20 | 22.69389 | 62.46828 | 39824 ft | 457 kts | 295° |
| 2026-04-26 18:20 | 22.71447 | 62.41498 | 39828 ft | 457 kts | 295° |
| 2026-04-26 18:21 | 22.74294 | 62.34111 | 39830 ft | 456 kts | 295° |
| 2026-04-26 18:21 | 22.76737 | 62.27763 | 39828 ft | 456 kts | 295° |
| 2026-04-26 18:22 | 22.79161 | 62.21456 | 39826 ft | 455 kts | 295° |
| 2026-04-26 18:22 | 22.81594 | 62.15117 | 39825 ft | 455 kts | 295° |
| 2026-04-26 18:23 | 22.84021 | 62.08785 | 39824 ft | 455 kts | 295° |
| 2026-04-26 18:23 | 22.86447 | 62.02446 | 39822 ft | 455 kts | 295° |
| 2026-04-26 18:24 | 22.88871 | 61.96105 | 39820 ft | 454 kts | 295° |
| 2026-04-26 18:24 | 22.91289 | 61.89770 | 39822 ft | 454 kts | 295° |
| 2026-04-26 18:25 | 22.93706 | 61.83429 | 39825 ft | 454 kts | 295° |
| 2026-04-26 18:25 | 22.96100 | 61.77138 | 39822 ft | 454 kts | 295° |
| 2026-04-26 18:26 | 22.98509 | 61.70801 | 39819 ft | 453 kts | 295° |
| 2026-04-26 18:26 | 23.00912 | 61.64471 | 39818 ft | 453 kts | 295° |
| 2026-04-26 18:27 | 23.03311 | 61.58141 | 39819 ft | 453 kts | 295° |
| 2026-04-26 18:27 | 23.05708 | 61.51809 | 39821 ft | 453 kts | 295° |
| 2026-04-26 18:28 | 23.08099 | 61.45483 | 39818 ft | 452 kts | 295° |
| 2026-04-26 18:28 | 23.10471 | 61.39197 | 39824 ft | 452 kts | 295° |
| 2026-04-26 18:29 | 23.12861 | 61.32856 | 39819 ft | 452 kts | 295° |
| 2026-04-26 18:29 | 23.15241 | 61.26533 | 39818 ft | 452 kts | 295° |
| 2026-04-26 18:30 | 23.17620 | 61.20202 | 39818 ft | 452 kts | 295° |
| 2026-04-26 18:30 | 23.19978 | 61.13921 | 39819 ft | 452 kts | 295° |
| 2026-04-26 18:31 | 23.22346 | 61.07601 | 39824 ft | 451 kts | 295° |
| 2026-04-26 18:31 | 23.24717 | 61.01266 | 39814 ft | 451 kts | 295° |
| 2026-04-26 18:32 | 23.27086 | 60.94928 | 39816 ft | 451 kts | 295° |
| 2026-04-26 18:32 | 23.29429 | 60.88647 | 39819 ft | 451 kts | 294° |
| 2026-04-26 18:33 | 23.31785 | 60.82326 | 39812 ft | 451 kts | 294° |
| 2026-04-26 18:33 | 23.34140 | 60.75998 | 39820 ft | 450 kts | 294° |
| 2026-04-26 18:34 | 23.36489 | 60.69675 | 39815 ft | 450 kts | 294° |
| 2026-04-26 18:34 | 23.38834 | 60.63356 | 39821 ft | 450 kts | 294° |
| 2026-04-26 18:35 | 23.41158 | 60.57030 | 39818 ft | 450 kts | 294° |
| 2026-04-26 18:35 | 23.43468 | 60.50700 | 39818 ft | 450 kts | 294° |
| 2026-04-26 18:36 | 23.45764 | 60.44404 | 39816 ft | 450 kts | 294° |
| 2026-04-26 18:36 | 23.48078 | 60.38062 | 39820 ft | 449 kts | 294° |
| 2026-04-26 18:37 | 23.50389 | 60.31720 | 39818 ft | 449 kts | 294° |
| 2026-04-26 18:37 | 23.52680 | 60.25422 | 39816 ft | 449 kts | 294° |
| 2026-04-26 18:38 | 23.54986 | 60.19075 | 39821 ft | 449 kts | 294° |
| 2026-04-26 18:38 | 23.57285 | 60.12737 | 39817 ft | 449 kts | 294° |
| 2026-04-26 18:39 | 23.59580 | 60.06403 | 39815 ft | 449 kts | 294° |
| 2026-04-26 18:39 | 23.61855 | 60.00112 | 39815 ft | 449 kts | 294° |
| 2026-04-26 18:40 | 23.64143 | 59.93778 | 39821 ft | 449 kts | 294° |
| 2026-04-26 18:40 | 23.66041 | 59.88514 | 39820 ft | 448 kts | 294° |
| 2026-04-26 18:41 | 23.68325 | 59.82173 | 39823 ft | 448 kts | 294° |
| 2026-04-26 18:41 | 23.70603 | 59.75839 | 39818 ft | 448 kts | 293° |
| 2026-04-26 18:42 | 23.72878 | 59.69505 | 39817 ft | 448 kts | 293° |
| 2026-04-26 18:42 | 23.75141 | 59.63195 | 39816 ft | 448 kts | 293° |
| 2026-04-26 18:43 | 23.77409 | 59.56861 | 39811 ft | 448 kts | 293° |
| 2026-04-26 18:43 | 23.79676 | 59.50520 | 39818 ft | 448 kts | 293° |
| 2026-04-26 18:44 | 23.81940 | 59.44177 | 39815 ft | 448 kts | 293° |
| 2026-04-26 18:44 | 23.84198 | 59.37843 | 39819 ft | 448 kts | 293° |
| 2026-04-26 18:45 | 23.86442 | 59.31541 | 39820 ft | 448 kts | 293° |
| 2026-04-26 18:45 | 23.88698 | 59.25192 | 39812 ft | 448 kts | 293° |
| 2026-04-26 18:46 | 23.90950 | 59.18846 | 39814 ft | 447 kts | 293° |
| 2026-04-26 18:46 | 23.93198 | 59.12503 | 39815 ft | 447 kts | 293° |
| 2026-04-26 18:47 | 23.95308 | 59.06099 | 39814 ft | 448 kts | 291° |
| 2026-04-26 18:47 | 23.97322 | 58.99655 | 39818 ft | 447 kts | 290° |
| 2026-04-26 18:48 | 23.99351 | 58.93226 | 39813 ft | 447 kts | 291° |
| 2026-04-26 18:48 | 24.01387 | 58.86844 | 39815 ft | 447 kts | 291° |
| 2026-04-26 18:49 | 24.03440 | 58.80424 | 39812 ft | 447 kts | 291° |
| 2026-04-26 18:49 | 24.05491 | 58.73999 | 39820 ft | 447 kts | 291° |
| 2026-04-26 18:50 | 24.07542 | 58.67561 | 39823 ft | 446 kts | 290° |
| 2026-04-26 18:50 | 24.09582 | 58.61146 | 39825 ft | 446 kts | 290° |
| 2026-04-26 18:51 | 24.11612 | 58.54753 | 39822 ft | 446 kts | 290° |
| 2026-04-26 18:51 | 24.13651 | 58.48318 | 39823 ft | 446 kts | 290° |
| 2026-04-26 18:52 | 24.15671 | 58.41929 | 39824 ft | 446 kts | 290° |
| 2026-04-26 18:52 | 24.17702 | 58.35500 | 39826 ft | 446 kts | 290° |
| 2026-04-26 18:53 | 24.19724 | 58.29087 | 39821 ft | 446 kts | 290° |
| 2026-04-26 18:53 | 24.21745 | 58.22667 | 39827 ft | 445 kts | 290° |
| 2026-04-26 18:54 | 24.23749 | 58.16293 | 39832 ft | 445 kts | 290° |
| 2026-04-26 18:54 | 24.25767 | 58.09862 | 39837 ft | 445 kts | 290° |
| 2026-04-26 18:55 | 24.27776 | 58.03448 | 39835 ft | 445 kts | 290° |
| 2026-04-26 18:55 | 24.29784 | 57.97028 | 39826 ft | 445 kts | 290° |
| 2026-04-26 18:56 | 24.31787 | 57.90614 | 39825 ft | 445 kts | 290° |
| 2026-04-26 18:56 | 24.33786 | 57.84199 | 39531 ft | 444 kts | 290° |
| 2026-04-26 18:57 | 24.34785 | 57.80990 | 39303 ft | 444 kts | 290° |
| 2026-04-26 18:57 | 24.35445 | 57.78870 | 39151 ft | 444 kts | 290° |
| 2026-04-26 18:57 | 24.36779 | 57.74578 | 38850 ft | 445 kts | 290° |
| 2026-04-26 18:57 | 24.37776 | 57.71370 | 38621 ft | 445 kts | 290° |
| 2026-04-26 18:58 | 24.38761 | 57.68193 | 38399 ft | 445 kts | 289° |
| 2026-04-26 18:58 | 24.39756 | 57.64985 | 38125 ft | 445 kts | 289° |
| 2026-04-26 18:58 | 24.40755 | 57.61760 | 37855 ft | 446 kts | 289° |
| 2026-04-26 18:58 | 24.41756 | 57.58528 | 37599 ft | 446 kts | 289° |
| 2026-04-26 18:59 | 24.42756 | 57.55294 | 37339 ft | 447 kts | 289° |
| 2026-04-26 18:59 | 24.43754 | 57.52064 | 37087 ft | 448 kts | 289° |
| 2026-04-26 18:59 | 24.44758 | 57.48822 | 36835 ft | 448 kts | 289° |
| 2026-04-26 18:59 | 24.45760 | 57.45579 | 36587 ft | 449 kts | 289° |
| 2026-04-26 19:00 | 24.46760 | 57.42332 | 36344 ft | 450 kts | 289° |
| 2026-04-26 19:00 | 24.47764 | 57.39068 | 36095 ft | 450 kts | 289° |
| 2026-04-26 19:00 | 24.48765 | 57.35809 | 35859 ft | 451 kts | 289° |
| 2026-04-26 19:00 | 24.49767 | 57.32546 | 35632 ft | 451 kts | 289° |
| 2026-04-26 19:01 | 24.50759 | 57.29317 | 35393 ft | 452 kts | 289° |
| 2026-04-26 19:01 | 24.51767 | 57.26030 | 35155 ft | 453 kts | 289° |
| 2026-04-26 19:01 | 24.52771 | 57.22755 | 34925 ft | 453 kts | 289° |
| 2026-04-26 19:01 | 24.53772 | 57.19487 | 34291 ft | 452 kts | 289° |
| 2026-04-26 19:02 | 24.54778 | 57.16202 | 33387 ft | 455 kts | 289° |
| 2026-04-26 19:02 | 24.55790 | 57.12901 | 32470 ft | 458 kts | 288° |
| 2026-04-26 19:02 | 24.56806 | 57.09582 | 31562 ft | 460 kts | 288° |
| 2026-04-26 19:02 | 24.57480 | 57.07372 | 30950 ft | 462 kts | 288° |
| 2026-04-26 19:03 | 24.58849 | 57.02892 | 30068 ft | 459 kts | 287° |
| 2026-04-26 19:03 | 24.59861 | 56.99576 | 29366 ft | 457 kts | 287° |
| 2026-04-26 19:03 | 24.60856 | 56.96313 | 28718 ft | 453 kts | 287° |
| 2026-04-26 19:03 | 24.61849 | 56.93049 | 28083 ft | 449 kts | 287° |
| 2026-04-26 19:04 | 24.62828 | 56.89812 | 27453 ft | 445 kts | 287° |
| 2026-04-26 19:04 | 24.63806 | 56.86602 | 26830 ft | 441 kts | 287° |
| 2026-04-26 19:04 | 24.65054 | 56.83523 | 26209 ft | 440 kts | 296° |
| 2026-04-26 19:04 | 24.66542 | 56.80589 | 25593 ft | 437 kts | 297° |
| 2026-04-26 19:05 | 24.69650 | 56.74890 | 24353 ft | 432 kts | 298° |
| 2026-04-26 19:05 | 24.71222 | 56.72076 | 23748 ft | 430 kts | 298° |
| 2026-04-26 19:05 | 24.72783 | 56.69283 | 23051 ft | 427 kts | 298° |
| 2026-04-26 19:06 | 24.74329 | 56.66505 | 22390 ft | 423 kts | 298° |
| 2026-04-26 19:06 | 24.75854 | 56.63751 | 21759 ft | 419 kts | 298° |
| 2026-04-26 19:06 | 24.77363 | 56.61016 | 21131 ft | 415 kts | 298° |
| 2026-04-26 19:06 | 24.78837 | 56.58337 | 20510 ft | 412 kts | 298° |
| 2026-04-26 19:07 | 24.80319 | 56.55640 | 19882 ft | 410 kts | 298° |
| 2026-04-26 19:07 | 24.81790 | 56.52960 | 19248 ft | 408 kts | 299° |
| 2026-04-26 19:07 | 24.83254 | 56.50292 | 18611 ft | 407 kts | 299° |
| 2026-04-26 19:07 | 24.84718 | 56.47625 | 17955 ft | 405 kts | 299° |
| 2026-04-26 19:08 | 24.86169 | 56.44979 | 17276 ft | 403 kts | 299° |
| 2026-04-26 19:08 | 24.87522 | 56.42294 | 16642 ft | 397 kts | 292° |
| 2026-04-26 19:08 | 24.88279 | 56.39406 | 16013 ft | 390 kts | 276° |
| 2026-04-26 19:08 | 24.88450 | 56.36440 | 15392 ft | 386 kts | 270° |
| 2026-04-26 19:09 | 24.88392 | 56.33492 | 14775 ft | 382 kts | 266° |
| 2026-04-26 19:09 | 24.88227 | 56.30620 | 14167 ft | 379 kts | 265° |
| 2026-04-26 19:09 | 24.88080 | 56.27741 | 13751 ft | 371 kts | 270° |
| 2026-04-26 19:09 | 24.88442 | 56.24994 | 13605 ft | 356 kts | 286° |
| 2026-04-26 19:10 | 24.89396 | 56.22542 | 13478 ft | 341 kts | 296° |
| 2026-04-26 19:10 | 24.90501 | 56.20286 | 13345 ft | 328 kts | 297° |
| 2026-04-26 19:10 | 24.91585 | 56.18131 | 13195 ft | 315 kts | 297° |
| 2026-04-26 19:10 | 24.92632 | 56.16065 | 13078 ft | 303 kts | 298° |
| 2026-04-26 19:11 | 24.93648 | 56.14080 | 12943 ft | 291 kts | 297° |
| 2026-04-26 19:11 | 24.94621 | 56.12172 | 12807 ft | 280 kts | 298° |
| 2026-04-26 19:11 | 24.95567 | 56.10318 | 12481 ft | 277 kts | 298° |
| 2026-04-26 19:11 | 24.96513 | 56.08473 | 12145 ft | 275 kts | 298° |
| 2026-04-26 19:12 | 24.97505 | 56.06716 | 11817 ft | 273 kts | 306° |
| 2026-04-26 19:12 | 24.98721 | 56.05129 | 11639 ft | 270 kts | 310° |
| 2026-04-26 19:12 | 24.99978 | 56.03600 | 11443 ft | 268 kts | 310° |
| 2026-04-26 19:12 | 25.01230 | 56.02080 | 11243 ft | 266 kts | 310° |
| 2026-04-26 19:13 | 25.02473 | 56.00568 | 11046 ft | 264 kts | 310° |
| 2026-04-26 19:13 | 25.03704 | 55.99067 | 10846 ft | 263 kts | 310° |
| 2026-04-26 19:13 | 25.04930 | 55.97569 | 10648 ft | 262 kts | 310° |
| 2026-04-26 19:13 | 25.06148 | 55.96080 | 10444 ft | 261 kts | 310° |
| 2026-04-26 19:14 | 25.07364 | 55.94598 | 10262 ft | 259 kts | 310° |
| 2026-04-26 19:14 | 25.08569 | 55.93120 | 10068 ft | 258 kts | 310° |
| 2026-04-26 19:14 | 25.09751 | 55.91666 | 9861 ft | 257 kts | 310° |
| 2026-04-26 19:14 | 25.10156 | 55.91169 | 9805 ft | 256 kts | 310° |
| 2026-04-26 19:15 | 25.12130 | 55.88744 | 9453 ft | 254 kts | 310° |
| 2026-04-26 19:15 | 25.13310 | 55.87296 | 9271 ft | 253 kts | 310° |
| 2026-04-26 19:15 | 25.14486 | 55.85852 | 9077 ft | 252 kts | 310° |
| 2026-04-26 19:15 | 25.15617 | 55.84380 | 8915 ft | 251 kts | 305° |
| 2026-04-26 19:16 | 25.16574 | 55.82794 | 8637 ft | 253 kts | 301° |
| 2026-04-26 19:16 | 25.17357 | 55.81077 | 8392 ft | 247 kts | 290° |
| 2026-04-26 19:16 | 25.17679 | 55.79246 | 8232 ft | 240 kts | 272° |
| 2026-04-26 19:16 | 25.17307 | 55.77481 | 8052 ft | 238 kts | 244° |
| 2026-04-26 19:17 | 25.16142 | 55.76210 | 7876 ft | 241 kts | 211° |
| 2026-04-26 19:17 | 25.14504 | 55.75932 | 7697 ft | 244 kts | 172° |
| 2026-04-26 19:17 | 25.12990 | 55.76728 | 7568 ft | 240 kts | 144° |
| 2026-04-26 19:17 | 25.11699 | 55.77859 | 7385 ft | 235 kts | 142° |
| 2026-04-26 19:18 | 25.10439 | 55.78964 | 7132 ft | 233 kts | 146° |
| 2026-04-26 19:18 | 25.08956 | 55.79715 | 6941 ft | 241 kts | 171° |
| 2026-04-26 19:18 | 25.07321 | 55.79614 | 6803 ft | 232 kts | 206° |
| 2026-04-26 19:18 | 25.05990 | 55.78678 | 6522 ft | 225 kts | 226° |
| 2026-04-26 19:19 | 25.05002 | 55.77365 | 6222 ft | 221 kts | 243° |
| 2026-04-26 19:19 | 25.04376 | 55.75810 | 6000 ft | 227 kts | 261° |
| 2026-04-26 19:19 | 25.04448 | 55.74081 | 5940 ft | 228 kts | 292° |
| 2026-04-26 19:19 | 25.05151 | 55.72543 | 5689 ft | 224 kts | 302° |
| 2026-04-26 19:20 | 25.05979 | 55.71073 | 5395 ft | 227 kts | 302° |
| 2026-04-26 19:20 | 25.06538 | 55.70093 | 5267 ft | 227 kts | 302° |
| 2026-04-26 19:20 | 25.07658 | 55.68124 | 5068 ft | 227 kts | 302° |
| 2026-04-26 19:20 | 25.08486 | 55.66646 | 4956 ft | 226 kts | 302° |
| 2026-04-26 19:21 | 25.09311 | 55.65169 | 4821 ft | 225 kts | 302° |
| 2026-04-26 19:21 | 25.10134 | 55.63696 | 4717 ft | 226 kts | 302° |
| 2026-04-26 19:21 | 25.10961 | 55.62221 | 4532 ft | 225 kts | 302° |
| 2026-04-26 19:21 | 25.11777 | 55.60757 | 4275 ft | 224 kts | 302° |
| 2026-04-26 19:22 | 25.12574 | 55.59322 | 4081 ft | 218 kts | 302° |
| 2026-04-26 19:22 | 25.13347 | 55.57928 | 3965 ft | 208 kts | 302° |
| 2026-04-26 19:22 | 25.14093 | 55.56597 | 3828 ft | 199 kts | 303° |
| 2026-04-26 19:22 | 25.14795 | 55.55365 | 3724 ft | 180 kts | 302° |
| 2026-04-26 19:23 | 25.15420 | 55.54239 | 3530 ft | 164 kts | 302° |
| 2026-04-26 19:23 | 25.15993 | 55.53201 | 3294 ft | 154 kts | 302° |
| 2026-04-26 19:23 | 25.16558 | 55.52186 | 2824 ft | 157 kts | 302° |
| 2026-04-26 19:23 | 25.17131 | 55.51159 | 2437 ft | 156 kts | 302° |
| 2026-04-26 19:24 | 25.17682 | 55.50168 | 2188 ft | 147 kts | 301° |
| 2026-04-26 19:24 | 25.18199 | 55.49234 | 1988 ft | 137 kts | 301° |
| 2026-04-26 19:24 | 25.19123 | 55.47562 | 1686 ft | 125 kts | 302° |
| 2026-04-26 19:25 | 25.19582 | 55.46749 | 1512 ft | 124 kts | 303° |
| 2026-04-26 19:25 | 25.19736 | 55.46478 | 1453 ft | 124 kts | 302° |
| 2026-04-26 19:25 | 25.20484 | 55.45108 | 1204 ft | 125 kts | 300° |
| 2026-04-26 19:25 | 25.20931 | 55.44284 | 1031 ft | 125 kts | 301° |
| 2026-04-26 19:26 | 25.21391 | 55.43465 | 885 ft | 125 kts | 301° |
| 2026-04-26 19:26 | 25.21853 | 55.42633 | 714 ft | 129 kts | 299° |
| 2026-04-26 19:26 | 25.22313 | 55.41783 | 575 ft | 132 kts | 301° |
| 2026-04-26 19:26 | 25.22795 | 55.40913 | 372 ft | 132 kts | 299° |
| 2026-04-26 19:27 | 25.23274 | 55.40056 | 181 ft | 132 kts | 300° |
| 2026-04-26 19:27 | 25.23750 | 55.39203 | 33 ft | 129 kts | 300° |
| 2026-04-26 19:27 | 25.24151 | 55.38480 | 28 ft | 77 kts | 301° |
| 2026-04-26 19:27 | 25.24342 | 55.38132 | 28 ft | 46 kts | 301° |
| 2026-04-26 19:28 | 25.24501 | 55.37844 | 28 ft | 42 kts | 303° |
| 2026-04-26 19:28 | 25.24601 | 55.37669 | 28 ft | 39 kts | 302° |
| 2026-04-26 19:28 | 25.24754 | 55.37384 | 28 ft | 21 kts | 292° |
| 2026-04-26 19:28 | 25.24775 | 55.37296 | 28 ft | 17 kts | 281° |
| 2026-04-26 19:29 | 25.24788 | 55.37168 | 28 ft | 17 kts | 272° |
| 2026-04-26 19:29 | 25.24787 | 55.37042 | 28 ft | 15 kts | 271° |
| 2026-04-26 19:29 | 25.24810 | 55.36928 | 28 ft | 13 kts | 295° |
| 2026-04-26 19:29 | 25.24848 | 55.36829 | 28 ft | 15 kts | 286° |
| 2026-04-26 19:30 | 25.24875 | 55.36707 | 28 ft | 17 kts | 290° |
| 2026-04-26 19:30 | 25.24929 | 55.36594 | 28 ft | 13 kts | 300° |
| 2026-04-26 19:30 | 25.24944 | 55.36546 | 28 ft | 3 kts | 252° |
| 2026-04-26 19:30 | 25.24934 | 55.36529 | 28 ft | 5 kts | 233° |
| 2026-04-26 19:31 | 25.24867 | 55.36482 | 28 ft | 11 kts | 211° |
| 2026-04-26 19:31 | 25.24823 | 55.36452 | 28 ft | 2 kts | 211° |
| 2026-04-26 19:31 | 25.24802 | 55.36438 | 28 ft | 3 kts | 211° |
| 2026-04-26 19:31 | 25.24799 | 55.36436 | 28 ft | 0 kts | 211° |